sensor_id;sensor_type;location;lat;lon;timestamp;P1;durP1;ratioP1;P2;durP2;ratioP2
57599;SDS011;43426;43.594;24.334;2023-04-12T00:00:28;5.20;;;3.63;;
57599;SDS011;43426;43.594;24.334;2023-04-12T00:02:53;3.97;;;3.67;;
57599;SDS011;43426;43.594;24.334;2023-04-12T00:05:22;3.80;;;3.50;;
57599;SDS011;43426;43.594;24.334;2023-04-12T00:07:51;4.20;;;3.80;;
57599;SDS011;43426;43.594;24.334;2023-04-12T00:12:43;3.60;;;3.30;;
57599;SDS011;43426;43.594;24.334;2023-04-12T00:15:09;3.47;;;3.17;;
57599;SDS011;43426;43.594;24.334;2023-04-12T00:17:34;4.30;;;3.90;;
57599;SDS011;43426;43.594;24.334;2023-04-12T00:20:00;4.07;;;3.10;;
57599;SDS011;43426;43.594;24.334;2023-04-12T00:22:29;4.25;;;3.80;;
57599;SDS011;43426;43.594;24.334;2023-04-12T00:24:54;3.92;;;3.47;;
57599;SDS011;43426;43.594;24.334;2023-04-12T00:27:20;3.70;;;3.40;;
57599;SDS011;43426;43.594;24.334;2023-04-12T00:29:45;3.35;;;3.05;;
57599;SDS011;43426;43.594;24.334;2023-04-12T00:32:11;4.55;;;3.45;;
57599;SDS011;43426;43.594;24.334;2023-04-12T00:34:36;4.88;;;3.35;;
57599;SDS011;43426;43.594;24.334;2023-04-12T00:37:01;3.85;;;3.53;;
57599;SDS011;43426;43.594;24.334;2023-04-12T00:39:27;3.28;;;3.03;;
57599;SDS011;43426;43.594;24.334;2023-04-12T00:41:53;3.88;;;3.25;;
57599;SDS011;43426;43.594;24.334;2023-04-12T00:44:21;6.18;;;3.50;;
57599;SDS011;43426;43.594;24.334;2023-04-12T00:49:12;3.50;;;3.20;;
57599;SDS011;43426;43.594;24.334;2023-04-12T00:51:38;3.25;;;3.00;;
57599;SDS011;43426;43.594;24.334;2023-04-12T00:54:04;4.50;;;3.88;;
57599;SDS011;43426;43.594;24.334;2023-04-12T00:56:31;3.85;;;3.55;;
57599;SDS011;43426;43.594;24.334;2023-04-12T00:58:57;4.53;;;3.58;;
57599;SDS011;43426;43.594;24.334;2023-04-12T01:01:22;4.32;;;3.83;;
57599;SDS011;43426;43.594;24.334;2023-04-12T01:03:51;4.47;;;3.50;;
57599;SDS011;43426;43.594;24.334;2023-04-12T01:09:19;4.63;;;3.35;;
57599;SDS011;43426;43.594;24.334;2023-04-12T01:12:14;3.70;;;3.40;;
57599;SDS011;43426;43.594;24.334;2023-04-12T01:17:19;4.22;;;3.83;;
57599;SDS011;43426;43.594;24.334;2023-04-12T01:25:00;4.60;;;4.10;;
57599;SDS011;43426;43.594;24.334;2023-04-12T01:27:36;5.38;;;3.88;;
57599;SDS011;43426;43.594;24.334;2023-04-12T01:30:06;4.03;;;3.72;;
57599;SDS011;43426;43.594;24.334;2023-04-12T01:32:33;4.60;;;3.83;;
57599;SDS011;43426;43.594;24.334;2023-04-12T01:35:01;4.32;;;3.95;;
57599;SDS011;43426;43.594;24.334;2023-04-12T01:37:27;4.25;;;3.75;;
57599;SDS011;43426;43.594;24.334;2023-04-12T01:39:53;4.50;;;4.10;;
57599;SDS011;43426;43.594;24.334;2023-04-12T01:42:19;4.82;;;4.43;;
57599;SDS011;43426;43.594;24.334;2023-04-12T01:44:45;4.97;;;4.47;;
57599;SDS011;43426;43.594;24.334;2023-04-12T01:47:11;4.18;;;3.85;;
57599;SDS011;43426;43.594;24.334;2023-04-12T01:52:12;4.40;;;4.00;;
57599;SDS011;43426;43.594;24.334;2023-04-12T01:54:44;6.25;;;4.88;;
57599;SDS011;43426;43.594;24.334;2023-04-12T01:57:14;4.80;;;4.32;;
57599;SDS011;43426;43.594;24.334;2023-04-12T01:59:42;5.30;;;4.80;;
57599;SDS011;43426;43.594;24.334;2023-04-12T02:02:08;5.85;;;4.78;;
57599;SDS011;43426;43.594;24.334;2023-04-12T02:04:35;4.78;;;4.13;;
57599;SDS011;43426;43.594;24.334;2023-04-12T02:07:02;5.10;;;4.65;;
57599;SDS011;43426;43.594;24.334;2023-04-12T02:09:27;4.85;;;4.32;;
57599;SDS011;43426;43.594;24.334;2023-04-12T02:11:55;4.88;;;4.38;;
57599;SDS011;43426;43.594;24.334;2023-04-12T02:14:23;5.00;;;4.50;;
57599;SDS011;43426;43.594;24.334;2023-04-12T02:16:48;4.78;;;4.38;;
57599;SDS011;43426;43.594;24.334;2023-04-12T02:19:14;6.43;;;4.78;;
57599;SDS011;43426;43.594;24.334;2023-04-12T02:21:40;5.00;;;4.50;;
57599;SDS011;43426;43.594;24.334;2023-04-12T02:24:07;5.20;;;4.70;;
57599;SDS011;43426;43.594;24.334;2023-04-12T02:26:33;4.88;;;4.43;;
57599;SDS011;43426;43.594;24.334;2023-04-12T02:29:00;5.22;;;4.60;;
57599;SDS011;43426;43.594;24.334;2023-04-12T02:31:25;4.95;;;4.45;;
57599;SDS011;43426;43.594;24.334;2023-04-12T02:36:17;5.93;;;4.40;;
57599;SDS011;43426;43.594;24.334;2023-04-12T02:38:42;4.78;;;4.30;;
57599;SDS011;43426;43.594;24.334;2023-04-12T02:41:07;4.78;;;4.20;;
57599;SDS011;43426;43.594;24.334;2023-04-12T02:43:33;5.40;;;4.50;;
57599;SDS011;43426;43.594;24.334;2023-04-12T02:45:58;5.15;;;4.60;;
57599;SDS011;43426;43.594;24.334;2023-04-12T02:48:24;5.13;;;4.72;;
57599;SDS011;43426;43.594;24.334;2023-04-12T02:50:50;4.97;;;4.47;;
57599;SDS011;43426;43.594;24.334;2023-04-12T02:53:15;5.43;;;4.50;;
57599;SDS011;43426;43.594;24.334;2023-04-12T02:55:40;5.50;;;4.93;;
57599;SDS011;43426;43.594;24.334;2023-04-12T02:58:06;4.93;;;4.50;;
57599;SDS011;43426;43.594;24.334;2023-04-12T03:00:31;6.63;;;4.60;;
57599;SDS011;43426;43.594;24.334;2023-04-12T03:02:58;5.82;;;4.97;;
57599;SDS011;43426;43.594;24.334;2023-04-12T03:05:27;4.55;;;4.15;;
57599;SDS011;43426;43.594;24.334;2023-04-12T03:07:52;5.22;;;4.72;;
57599;SDS011;43426;43.594;24.334;2023-04-12T03:10:20;4.80;;;4.30;;
57599;SDS011;43426;43.594;24.334;2023-04-12T03:12:45;4.82;;;4.43;;
57599;SDS011;43426;43.594;24.334;2023-04-12T03:15:11;5.68;;;5.13;;
57599;SDS011;43426;43.594;24.334;2023-04-12T03:17:36;5.57;;;4.85;;
57599;SDS011;43426;43.594;24.334;2023-04-12T03:20:05;5.82;;;4.70;;
57599;SDS011;43426;43.594;24.334;2023-04-12T03:22:33;5.50;;;4.90;;
57599;SDS011;43426;43.594;24.334;2023-04-12T03:25:02;5.32;;;4.90;;
57599;SDS011;43426;43.594;24.334;2023-04-12T03:27:28;5.60;;;5.10;;
57599;SDS011;43426;43.594;24.334;2023-04-12T03:29:53;5.13;;;4.67;;
57599;SDS011;43426;43.594;24.334;2023-04-12T03:32:20;5.68;;;5.22;;
57599;SDS011;43426;43.594;24.334;2023-04-12T03:34:45;4.50;;;4.10;;
57599;SDS011;43426;43.594;24.334;2023-04-12T03:37:11;6.15;;;5.53;;
57599;SDS011;43426;43.594;24.334;2023-04-12T03:39:37;5.63;;;5.13;;
57599;SDS011;43426;43.594;24.334;2023-04-12T03:42:03;6.22;;;5.60;;
57599;SDS011;43426;43.594;24.334;2023-04-12T03:44:28;6.85;;;5.85;;
57599;SDS011;43426;43.594;24.334;2023-04-12T03:46:53;5.90;;;5.27;;
57599;SDS011;43426;43.594;24.334;2023-04-12T03:49:19;6.07;;;5.38;;
57599;SDS011;43426;43.594;24.334;2023-04-12T03:51:45;9.05;;;5.22;;
57599;SDS011;43426;43.594;24.334;2023-04-12T03:54:11;5.60;;;5.10;;
57599;SDS011;43426;43.594;24.334;2023-04-12T03:56:37;8.07;;;5.15;;
57599;SDS011;43426;43.594;24.334;2023-04-12T03:59:04;6.20;;;4.88;;
57599;SDS011;43426;43.594;24.334;2023-04-12T04:01:31;5.40;;;4.90;;
57599;SDS011;43426;43.594;24.334;2023-04-12T04:06:23;6.45;;;4.78;;
57599;SDS011;43426;43.594;24.334;2023-04-12T04:08:48;5.30;;;4.90;;
57599;SDS011;43426;43.594;24.334;2023-04-12T04:11:14;6.47;;;5.03;;
57599;SDS011;43426;43.594;24.334;2023-04-12T04:13:42;5.93;;;5.40;;
57599;SDS011;43426;43.594;24.334;2023-04-12T04:16:07;4.85;;;4.43;;
57599;SDS011;43426;43.594;24.334;2023-04-12T04:18:34;7.25;;;6.20;;
57599;SDS011;43426;43.594;24.334;2023-04-12T04:21:00;6.10;;;5.47;;
57599;SDS011;43426;43.594;24.334;2023-04-12T04:23:26;8.57;;;6.25;;
57599;SDS011;43426;43.594;24.334;2023-04-12T04:25:53;5.90;;;5.38;;
57599;SDS011;43426;43.594;24.334;2023-04-12T04:28:19;7.07;;;5.80;;
57599;SDS011;43426;43.594;24.334;2023-04-12T04:30:44;7.72;;;5.72;;
57599;SDS011;43426;43.594;24.334;2023-04-12T04:33:12;6.53;;;5.82;;
57599;SDS011;43426;43.594;24.334;2023-04-12T04:35:39;6.15;;;5.60;;
57599;SDS011;43426;43.594;24.334;2023-04-12T04:38:05;6.07;;;5.57;;
57599;SDS011;43426;43.594;24.334;2023-04-12T04:40:31;8.65;;;7.05;;
57599;SDS011;43426;43.594;24.334;2023-04-12T04:42:57;6.20;;;5.63;;
57599;SDS011;43426;43.594;24.334;2023-04-12T04:47:53;6.70;;;5.53;;
57599;SDS011;43426;43.594;24.334;2023-04-12T04:52:50;5.57;;;5.07;;
57599;SDS011;43426;43.594;24.334;2023-04-12T04:55:16;7.78;;;6.40;;
57599;SDS011;43426;43.594;24.334;2023-04-12T05:00:08;6.82;;;6.10;;
57599;SDS011;43426;43.594;24.334;2023-04-12T05:02:38;5.68;;;5.15;;
57599;SDS011;43426;43.594;24.334;2023-04-12T05:05:07;6.22;;;5.63;;
57599;SDS011;43426;43.594;24.334;2023-04-12T05:07:39;6.93;;;4.97;;
57599;SDS011;43426;43.594;24.334;2023-04-12T05:10:07;6.05;;;5.45;;
57599;SDS011;43426;43.594;24.334;2023-04-12T05:12:33;6.82;;;4.32;;
57599;SDS011;43426;43.594;24.334;2023-04-12T05:17:25;5.40;;;3.97;;
57599;SDS011;43426;43.594;24.334;2023-04-12T05:19:51;5.40;;;4.28;;
57599;SDS011;43426;43.594;24.334;2023-04-12T05:22:16;4.60;;;4.20;;
57599;SDS011;43426;43.594;24.334;2023-04-12T05:24:44;7.15;;;5.07;;
57599;SDS011;43426;43.594;24.334;2023-04-12T05:27:10;5.90;;;4.28;;
57599;SDS011;43426;43.594;24.334;2023-04-12T05:29:35;5.28;;;4.88;;
57599;SDS011;43426;43.594;24.334;2023-04-12T05:32:01;4.88;;;4.47;;
57599;SDS011;43426;43.594;24.334;2023-04-12T05:34:26;4.80;;;4.40;;
57599;SDS011;43426;43.594;24.334;2023-04-12T05:36:52;4.90;;;4.50;;
57599;SDS011;43426;43.594;24.334;2023-04-12T05:39:17;4.53;;;3.95;;
57599;SDS011;43426;43.594;24.334;2023-04-12T05:41:43;4.90;;;4.43;;
57599;SDS011;43426;43.594;24.334;2023-04-12T05:44:08;6.03;;;4.63;;
57599;SDS011;43426;43.594;24.334;2023-04-12T05:46:33;4.93;;;4.45;;
57599;SDS011;43426;43.594;24.334;2023-04-12T05:49:00;4.93;;;4.15;;
57599;SDS011;43426;43.594;24.334;2023-04-12T05:51:25;5.43;;;4.28;;
57599;SDS011;43426;43.594;24.334;2023-04-12T05:53:51;4.43;;;4.03;;
57599;SDS011;43426;43.594;24.334;2023-04-12T05:56:16;6.43;;;5.10;;
57599;SDS011;43426;43.594;24.334;2023-04-12T05:58:41;5.10;;;4.10;;
57599;SDS011;43426;43.594;24.334;2023-04-12T06:01:07;4.15;;;3.67;;
57599;SDS011;43426;43.594;24.334;2023-04-12T06:03:32;4.45;;;4.05;;
57599;SDS011;43426;43.594;24.334;2023-04-12T06:05:58;4.65;;;3.72;;
57599;SDS011;43426;43.594;24.334;2023-04-12T06:08:23;3.92;;;3.53;;
57599;SDS011;43426;43.594;24.334;2023-04-12T06:10:49;3.15;;;2.83;;
57599;SDS011;43426;43.594;24.334;2023-04-12T06:13:14;3.60;;;3.30;;
57599;SDS011;43426;43.594;24.334;2023-04-12T06:15:40;4.03;;;3.53;;
57599;SDS011;43426;43.594;24.334;2023-04-12T06:18:06;3.83;;;2.83;;
57599;SDS011;43426;43.594;24.334;2023-04-12T06:20:31;3.38;;;3.08;;
57599;SDS011;43426;43.594;24.334;2023-04-12T06:22:57;2.53;;;2.33;;
57599;SDS011;43426;43.594;24.334;2023-04-12T06:25:22;3.10;;;2.38;;
57599;SDS011;43426;43.594;24.334;2023-04-12T06:27:50;2.88;;;2.30;;
57599;SDS011;43426;43.594;24.334;2023-04-12T06:30:17;3.30;;;1.60;;
57599;SDS011;43426;43.594;24.334;2023-04-12T06:32:43;2.92;;;1.65;;
57599;SDS011;43426;43.594;24.334;2023-04-12T06:35:09;2.20;;;2.00;;
57599;SDS011;43426;43.594;24.334;2023-04-12T06:37:34;2.08;;;1.88;;
57599;SDS011;43426;43.594;24.334;2023-04-12T06:40:00;2.33;;;1.88;;
57599;SDS011;43426;43.594;24.334;2023-04-12T06:42:25;3.30;;;2.70;;
57599;SDS011;43426;43.594;24.334;2023-04-12T06:44:50;2.28;;;2.08;;
57599;SDS011;43426;43.594;24.334;2023-04-12T06:47:16;3.60;;;1.85;;
57599;SDS011;43426;43.594;24.334;2023-04-12T06:49:44;1.70;;;1.60;;
57599;SDS011;43426;43.594;24.334;2023-04-12T06:52:09;2.30;;;1.75;;
57599;SDS011;43426;43.594;24.334;2023-04-12T06:54:35;1.60;;;1.50;;
57599;SDS011;43426;43.594;24.334;2023-04-12T06:57:02;4.35;;;1.50;;
57599;SDS011;43426;43.594;24.334;2023-04-12T06:59:27;1.60;;;1.20;;
57599;SDS011;43426;43.594;24.334;2023-04-12T07:01:53;2.60;;;1.80;;
57599;SDS011;43426;43.594;24.334;2023-04-12T07:04:18;2.30;;;2.10;;
57599;SDS011;43426;43.594;24.334;2023-04-12T07:06:44;2.25;;;2.05;;
57599;SDS011;43426;43.594;24.334;2023-04-12T07:09:09;2.15;;;1.60;;
57599;SDS011;43426;43.594;24.334;2023-04-12T07:11:35;3.13;;;2.22;;
57599;SDS011;43426;43.594;24.334;2023-04-12T07:14:00;1.73;;;1.63;;
57599;SDS011;43426;43.594;24.334;2023-04-12T07:16:26;1.60;;;1.50;;
57599;SDS011;43426;43.594;24.334;2023-04-12T07:18:53;2.17;;;1.98;;
57599;SDS011;43426;43.594;24.334;2023-04-12T07:21:21;1.95;;;1.50;;
57599;SDS011;43426;43.594;24.334;2023-04-12T07:23:47;3.08;;;1.80;;
57599;SDS011;43426;43.594;24.334;2023-04-12T07:26:15;1.50;;;1.40;;
57599;SDS011;43426;43.594;24.334;2023-04-12T07:28:42;1.67;;;1.55;;
57599;SDS011;43426;43.594;24.334;2023-04-12T07:31:07;5.20;;;1.88;;
57599;SDS011;43426;43.594;24.334;2023-04-12T07:33:32;1.70;;;1.60;;
57599;SDS011;43426;43.594;24.334;2023-04-12T07:36:01;2.35;;;1.70;;
57599;SDS011;43426;43.594;24.334;2023-04-12T07:38:28;1.60;;;1.50;;
57599;SDS011;43426;43.594;24.334;2023-04-12T07:40:53;1.40;;;1.25;;
57599;SDS011;43426;43.594;24.334;2023-04-12T07:43:19;1.60;;;1.48;;
57599;SDS011;43426;43.594;24.334;2023-04-12T07:45:45;2.10;;;1.98;;
57599;SDS011;43426;43.594;24.334;2023-04-12T07:48:10;2.42;;;2.22;;
57599;SDS011;43426;43.594;24.334;2023-04-12T07:50:36;1.95;;;1.70;;
57599;SDS011;43426;43.594;24.334;2023-04-12T07:55:50;5.07;;;1.20;;
57599;SDS011;43426;43.594;24.334;2023-04-12T07:58:16;1.42;;;1.33;;
57599;SDS011;43426;43.594;24.334;2023-04-12T08:00:46;2.38;;;1.52;;
57599;SDS011;43426;43.594;24.334;2023-04-12T08:03:13;1.85;;;1.23;;
57599;SDS011;43426;43.594;24.334;2023-04-12T08:05:40;1.92;;;1.77;;
57599;SDS011;43426;43.594;24.334;2023-04-12T08:10:33;1.83;;;1.73;;
57599;SDS011;43426;43.594;24.334;2023-04-12T08:12:59;1.08;;;1.02;;
57599;SDS011;43426;43.594;24.334;2023-04-12T08:15:24;1.52;;;1.42;;
57599;SDS011;43426;43.594;24.334;2023-04-12T08:17:50;2.08;;;1.88;;
57599;SDS011;43426;43.594;24.334;2023-04-12T08:22:41;2.28;;;1.25;;
57599;SDS011;43426;43.594;24.334;2023-04-12T08:25:07;1.20;;;1.10;;
57599;SDS011;43426;43.594;24.334;2023-04-12T08:27:33;1.13;;;1.00;;
57599;SDS011;43426;43.594;24.334;2023-04-12T08:29:58;1.27;;;1.20;;
57599;SDS011;43426;43.594;24.334;2023-04-12T08:32:24;1.50;;;1.40;;
57599;SDS011;43426;43.594;24.334;2023-04-12T08:34:50;1.50;;;1.40;;
57599;SDS011;43426;43.594;24.334;2023-04-12T08:39:41;1.95;;;1.20;;
57599;SDS011;43426;43.594;24.334;2023-04-12T08:42:07;1.42;;;1.33;;
57599;SDS011;43426;43.594;24.334;2023-04-12T08:47:01;1.23;;;1.20;;
57599;SDS011;43426;43.594;24.334;2023-04-12T08:49:27;1.02;;;1.00;;
57599;SDS011;43426;43.594;24.334;2023-04-12T08:51:55;2.03;;;1.13;;
57599;SDS011;43426;43.594;24.334;2023-04-12T08:54:29;1.35;;;1.25;;
57599;SDS011;43426;43.594;24.334;2023-04-12T09:01:49;1.10;;;0.80;;
57599;SDS011;43426;43.594;24.334;2023-04-12T09:04:17;0.85;;;0.85;;
57599;SDS011;43426;43.594;24.334;2023-04-12T09:06:42;1.60;;;1.00;;
57599;SDS011;43426;43.594;24.334;2023-04-12T09:09:07;0.65;;;0.65;;
57599;SDS011;43426;43.594;24.334;2023-04-12T09:11:33;1.90;;;1.45;;
57599;SDS011;43426;43.594;24.334;2023-04-12T09:13:58;1.95;;;1.25;;
57599;SDS011;43426;43.594;24.334;2023-04-12T09:16:40;2.95;;;0.68;;
57599;SDS011;43426;43.594;24.334;2023-04-12T09:19:06;1.08;;;0.85;;
57599;SDS011;43426;43.594;24.334;2023-04-12T09:21:33;1.30;;;0.80;;
57599;SDS011;43426;43.594;24.334;2023-04-12T09:24:03;1.15;;;0.70;;
57599;SDS011;43426;43.594;24.334;2023-04-12T09:26:37;0.85;;;0.85;;
57599;SDS011;43426;43.594;24.334;2023-04-12T09:29:04;1.00;;;0.98;;
57599;SDS011;43426;43.594;24.334;2023-04-12T09:31:32;1.33;;;1.23;;
57599;SDS011;43426;43.594;24.334;2023-04-12T09:34:05;1.42;;;0.90;;
57599;SDS011;43426;43.594;24.334;2023-04-12T09:36:39;0.70;;;0.70;;
57599;SDS011;43426;43.594;24.334;2023-04-12T09:39:05;1.60;;;1.25;;
57599;SDS011;43426;43.594;24.334;2023-04-12T09:41:31;0.77;;;0.77;;
57599;SDS011;43426;43.594;24.334;2023-04-12T09:46:23;1.20;;;1.00;;
57599;SDS011;43426;43.594;24.334;2023-04-12T09:51:24;1.25;;;1.15;;
57599;SDS011;43426;43.594;24.334;2023-04-12T09:53:52;3.33;;;1.38;;
57599;SDS011;43426;43.594;24.334;2023-04-12T09:56:23;0.77;;;0.77;;
57599;SDS011;43426;43.594;24.334;2023-04-12T09:58:51;3.90;;;0.90;;
57599;SDS011;43426;43.594;24.334;2023-04-12T10:01:18;0.80;;;0.80;;
57599;SDS011;43426;43.594;24.334;2023-04-12T10:03:47;1.13;;;1.02;;
57599;SDS011;43426;43.594;24.334;2023-04-12T10:08:39;0.53;;;0.50;;
57599;SDS011;43426;43.594;24.334;2023-04-12T10:11:05;1.00;;;0.90;;
57599;SDS011;43426;43.594;24.334;2023-04-12T10:13:31;0.85;;;0.77;;
57599;SDS011;43426;43.594;24.334;2023-04-12T10:15:58;2.38;;;0.98;;
57599;SDS011;43426;43.594;24.334;2023-04-12T10:18:24;1.38;;;1.10;;
57599;SDS011;43426;43.594;24.334;2023-04-12T10:20:51;2.53;;;0.80;;
57599;SDS011;43426;43.594;24.334;2023-04-12T10:23:17;2.83;;;1.17;;
57599;SDS011;43426;43.594;24.334;2023-04-12T10:25:45;1.60;;;1.00;;
57599;SDS011;43426;43.594;24.334;2023-04-12T10:28:15;2.90;;;1.60;;
57599;SDS011;43426;43.594;24.334;2023-04-12T10:30:42;1.20;;;1.10;;
57599;SDS011;43426;43.594;24.334;2023-04-12T10:38:26;1.13;;;0.90;;
57599;SDS011;43426;43.594;24.334;2023-04-12T10:41:10;1.92;;;1.30;;
57599;SDS011;43426;43.594;24.334;2023-04-12T10:43:45;0.80;;;0.80;;
57599;SDS011;43426;43.594;24.334;2023-04-12T10:49:13;1.38;;;1.10;;
57599;SDS011;43426;43.594;24.334;2023-04-12T10:52:09;1.23;;;1.05;;
57599;SDS011;43426;43.594;24.334;2023-04-12T10:56:51;1.38;;;0.95;;
57599;SDS011;43426;43.594;24.334;2023-04-12T11:04:36;1.00;;;1.00;;
57599;SDS011;43426;43.594;24.334;2023-04-12T11:07:05;1.67;;;1.55;;
57599;SDS011;43426;43.594;24.334;2023-04-12T11:09:43;3.75;;;1.25;;
57599;SDS011;43426;43.594;24.334;2023-04-12T11:19:32;1.00;;;0.90;;
57599;SDS011;43426;43.594;24.334;2023-04-12T11:22:00;0.73;;;0.73;;
57599;SDS011;43426;43.594;24.334;2023-04-12T11:24:28;1.13;;;1.02;;
57599;SDS011;43426;43.594;24.334;2023-04-12T11:26:53;1.33;;;1.20;;
57599;SDS011;43426;43.594;24.334;2023-04-12T11:29:23;0.85;;;0.85;;
57599;SDS011;43426;43.594;24.334;2023-04-12T11:31:51;3.30;;;1.00;;
57599;SDS011;43426;43.594;24.334;2023-04-12T11:34:17;3.53;;;1.10;;
57599;SDS011;43426;43.594;24.334;2023-04-12T11:37:01;0.98;;;0.98;;
57599;SDS011;43426;43.594;24.334;2023-04-12T11:39:32;1.63;;;1.33;;
57599;SDS011;43426;43.594;24.334;2023-04-12T11:41:58;1.38;;;1.27;;
57599;SDS011;43426;43.594;24.334;2023-04-12T11:44:25;1.38;;;1.08;;
57599;SDS011;43426;43.594;24.334;2023-04-12T11:46:51;1.23;;;0.98;;
57599;SDS011;43426;43.594;24.334;2023-04-12T11:49:19;2.95;;;1.70;;
57599;SDS011;43426;43.594;24.334;2023-04-12T11:51:45;1.70;;;1.50;;
57599;SDS011;43426;43.594;24.334;2023-04-12T11:56:38;3.60;;;1.65;;
57599;SDS011;43426;43.594;24.334;2023-04-12T11:59:04;1.75;;;1.10;;
57599;SDS011;43426;43.594;24.334;2023-04-12T12:01:30;1.55;;;1.45;;
57599;SDS011;43426;43.594;24.334;2023-04-12T12:03:58;1.55;;;1.45;;
57599;SDS011;43426;43.594;24.334;2023-04-12T12:06:24;1.67;;;1.58;;
57599;SDS011;43426;43.594;24.334;2023-04-12T12:08:51;1.02;;;0.93;;
57599;SDS011;43426;43.594;24.334;2023-04-12T12:11:21;1.00;;;1.00;;
57599;SDS011;43426;43.594;24.334;2023-04-12T12:13:51;1.13;;;1.02;;
57599;SDS011;43426;43.594;24.334;2023-04-12T12:16:22;1.15;;;1.05;;
57599;SDS011;43426;43.594;24.334;2023-04-12T12:18:54;1.80;;;1.52;;
57599;SDS011;43426;43.594;24.334;2023-04-12T12:21:22;1.83;;;1.10;;
57599;SDS011;43426;43.594;24.334;2023-04-12T12:26:19;1.38;;;1.27;;
57599;SDS011;43426;43.594;24.334;2023-04-12T12:28:49;2.50;;;0.88;;
57599;SDS011;43426;43.594;24.334;2023-04-12T12:31:20;1.35;;;1.25;;
57599;SDS011;43426;43.594;24.334;2023-04-12T12:33:47;1.20;;;1.00;;
57599;SDS011;43426;43.594;24.334;2023-04-12T12:36:18;1.20;;;1.00;;
57599;SDS011;43426;43.594;24.334;2023-04-12T12:38:46;2.20;;;1.40;;
57599;SDS011;43426;43.594;24.334;2023-04-12T12:41:14;1.00;;;0.90;;
57599;SDS011;43426;43.594;24.334;2023-04-12T12:43:46;1.58;;;1.00;;
57599;SDS011;43426;43.594;24.334;2023-04-12T12:46:13;0.95;;;0.90;;
57599;SDS011;43426;43.594;24.334;2023-04-12T12:48:42;1.05;;;0.95;;
57599;SDS011;43426;43.594;24.334;2023-04-12T12:51:09;1.25;;;0.98;;
57599;SDS011;43426;43.594;24.334;2023-04-12T12:53:36;0.60;;;0.60;;
57599;SDS011;43426;43.594;24.334;2023-04-12T12:56:03;1.48;;;0.88;;
57599;SDS011;43426;43.594;24.334;2023-04-12T13:00:54;0.82;;;0.82;;
57599;SDS011;43426;43.594;24.334;2023-04-12T13:05:45;1.40;;;0.88;;
57599;SDS011;43426;43.594;24.334;2023-04-12T13:10:36;0.47;;;0.47;;
57599;SDS011;43426;43.594;24.334;2023-04-12T13:15:27;0.80;;;0.70;;
